createdAt,value
2022-08-05T00:01:54.478Z,99567.97
2022-08-05T00:04:22.745Z,99566.72
2022-08-05T00:06:51.761Z,99561.44
2022-08-05T00:09:20.478Z,99561.97
2022-08-05T00:11:56.042Z,99551.59
2022-08-05T00:14:29.125Z,99520.94
2022-08-05T00:17:02.098Z,99558.44
2022-08-05T00:19:33.460Z,99566.66
2022-08-05T00:22:04.323Z,99547.50
2022-08-05T00:24:32.672Z,99570.34
2022-08-05T00:27:04.522Z,99560.25
2022-08-05T00:29:38.520Z,99556.53
2022-08-05T00:32:12.362Z,99553.22
2022-08-05T00:35:03.982Z,99564.84
2022-08-05T00:37:51.395Z,99560.91
2022-08-05T00:40:27.571Z,99566.94
2022-08-05T00:43:00.020Z,99500.94
2022-08-05T00:45:43.186Z,99576.28
2022-08-05T00:48:17.831Z,99555.31
2022-08-05T00:50:55.810Z,99551.06
2022-08-05T00:54:00.439Z,99559.13
2022-08-05T00:56:13.365Z,99516.09
2022-08-05T00:58:45.775Z,99545.47
2022-08-05T01:01:16.185Z,99462.72
2022-08-05T01:04:11.775Z,99435.66
2022-08-05T01:06:46.688Z,99552.59
2022-08-05T01:09:17.389Z,99502.16
2022-08-05T01:12:04.523Z,99508.81
2022-08-05T01:14:56.279Z,99547.50
2022-08-05T01:17:53.806Z,99462.34
2022-08-05T01:20:27.803Z,99555.28
2022-08-05T01:23:14.293Z,99546.25
2022-08-05T01:25:58.276Z,99550.97
2022-08-05T01:28:29.898Z,99538.22
2022-08-05T01:31:20.982Z,99546.09
2022-08-05T01:34:22.444Z,99452.97
2022-08-05T01:37:24.834Z,99539.13
2022-08-05T01:39:59.232Z,99533.28
2022-08-05T01:42:30.189Z,99541.81
2022-08-05T01:45:02.309Z,99505.69
2022-08-05T01:47:39.683Z,99543.75
2022-08-05T01:50:29.833Z,99515.94
2022-08-05T01:53:03.382Z,99548.09
2022-08-05T01:55:36.280Z,99549.41
2022-08-05T01:58:29.709Z,99524.09
2022-08-05T02:00:59.688Z,99461.53
2022-08-05T02:03:40.705Z,99532.25
2022-08-05T02:06:23.906Z,99496.22
2022-08-05T02:08:59.324Z,99496.69
2022-08-05T02:11:42.167Z,99524.00
2022-08-05T02:14:48.936Z,99537.06
2022-08-05T02:18:09.925Z,99526.41
2022-08-05T02:20:23.491Z,99531.41
2022-08-05T02:23:01.458Z,99539.47
2022-08-05T02:25:35.987Z,99533.53
2022-08-05T02:28:32.135Z,99489.06
2022-08-05T02:31:21.205Z,99510.38
2022-08-05T02:33:58.087Z,99517.06
2022-08-05T02:36:31.629Z,99526.44
2022-08-05T02:39:03.172Z,99530.69
2022-08-05T02:41:43.178Z,99516.19
2022-08-05T02:44:24.699Z,99466.56
2022-08-05T02:47:00.208Z,99515.84
2022-08-05T02:49:37.883Z,99464.25
2022-08-05T02:52:30.201Z,99517.78
2022-08-05T02:55:05.249Z,99516.13
2022-08-05T02:58:09.833Z,99463.50
2022-08-05T03:00:25.409Z,99515.66
2022-08-05T03:02:57.448Z,99508.50
2022-08-05T03:06:55.040Z,99424.56
2022-08-05T03:08:16.560Z,99505.16
2022-08-05T03:11:55.461Z,99510.34
2022-08-05T03:13:51.768Z,99506.16
2022-08-05T03:16:22.530Z,99508.34
2022-08-05T03:18:51.316Z,99505.09
2022-08-05T03:21:20.184Z,99456.31
2022-08-05T03:23:50.483Z,99486.22
2022-08-05T03:26:32.040Z,99446.84
2022-08-05T03:29:01.546Z,99495.09
2022-08-05T03:31:56.691Z,99495.59
2022-08-05T03:34:19.683Z,99495.72
2022-08-05T03:36:52.646Z,99505.00
2022-08-05T03:39:26.635Z,99496.97
2022-08-05T03:41:57.397Z,99464.84
2022-08-05T03:44:29.069Z,99489.44
2022-08-05T03:46:57.402Z,99407.38
2022-08-05T03:49:31.095Z,99478.03
2022-08-05T03:52:50.258Z,99483.97
2022-08-05T03:56:05.654Z,99489.56
2022-08-05T03:58:19.275Z,99484.28
2022-08-05T04:00:51.697Z,99450.38
2022-08-05T04:03:26.752Z,99494.56
2022-08-05T04:05:59.204Z,99459.91
2022-08-05T04:08:36.814Z,99445.38
2022-08-05T04:11:08.568Z,99441.97
2022-08-05T04:13:49.930Z,99445.72
2022-08-05T04:16:25.058Z,99492.03
2022-08-05T04:18:54.933Z,99490.59
2022-08-05T04:22:10.006Z,99486.41
2022-08-05T04:24:19.107Z,99444.44
2022-08-05T04:26:51.194Z,99433.41
2022-08-05T04:29:19.788Z,99473.84
2022-08-05T04:31:48.537Z,99512.06
2022-08-05T04:34:33.800Z,99469.75
2022-08-05T04:37:06.946Z,99501.59
2022-08-05T04:39:35.285Z,99453.56
2022-08-05T04:42:06.978Z,99499.44
2022-08-05T04:44:35.177Z,99482.72
2022-08-05T04:47:08.891Z,99462.28
2022-08-05T04:50:01.391Z,99455.69
2022-08-05T04:52:27.810Z,99427.31
2022-08-05T04:54:57.798Z,99486.47
2022-08-05T04:57:28.781Z,99483.72
2022-08-05T04:59:58.950Z,99491.91
2022-08-05T05:02:41.183Z,99441.22
2022-08-05T05:05:16.847Z,99484.03
2022-08-05T05:08:00.963Z,99485.72
2022-08-05T05:10:33.302Z,99483.28
2022-08-05T05:13:03.669Z,99438.66
2022-08-05T05:15:56.595Z,99467.25
2022-08-05T05:18:31.354Z,99483.53
2022-08-05T05:21:04.194Z,99481.03
2022-08-05T05:24:01.851Z,99455.13
2022-08-05T05:26:28.343Z,99417.34
2022-08-05T05:29:01.083Z,99484.53
2022-08-05T05:34:01.963Z,99482.94
2022-08-05T05:36:32.323Z,99500.09
2022-08-05T05:39:04.469Z,99482.34
2022-08-05T05:41:40.478Z,99484.13
2022-08-05T05:44:35.505Z,99480.56
2022-08-05T05:47:04.006Z,99449.59
2022-08-05T05:49:33.255Z,99430.56
2022-08-05T05:52:06.088Z,99487.16
2022-08-05T05:54:51.086Z,99447.28
2022-08-05T05:57:20.437Z,99444.34
2022-08-05T05:59:48.747Z,99483.38
2022-08-05T06:02:32.809Z,99481.66
2022-08-05T06:05:10.575Z,99482.41
2022-08-05T06:08:01.363Z,99478.00
2022-08-05T06:10:36.780Z,99414.03
2022-08-05T06:13:05.871Z,99490.00
2022-08-05T06:16:28.194Z,99475.84
2022-08-05T06:18:31.286Z,99481.50
2022-08-05T06:21:00.719Z,99470.22
2022-08-05T06:23:32.169Z,99409.72
2022-08-05T06:26:20.949Z,99479.97
2022-08-05T06:28:49.769Z,99464.38
2022-08-05T06:31:21.874Z,99467.16
2022-08-05T06:34:07.881Z,99479.31
2022-08-05T06:36:57.136Z,99429.00
2022-08-05T06:39:28.050Z,99466.94
2022-08-05T06:42:04.099Z,99469.03
2022-08-05T06:44:32.868Z,99480.88
2022-08-05T06:47:02.277Z,99466.94
2022-08-05T06:50:02.068Z,99470.59
2022-08-05T06:52:37.690Z,99386.41
2022-08-05T06:55:07.958Z,99469.50
2022-08-05T06:58:02.699Z,99393.94
2022-08-05T07:00:25.527Z,99434.53
2022-08-05T07:02:56.514Z,99448.88
2022-08-05T07:05:37.435Z,99425.78
2022-08-05T07:08:07.060Z,99408.78
2022-08-05T07:10:52.518Z,99453.28
2022-08-05T07:13:59.491Z,99454.91
2022-08-05T07:18:01.614Z,99422.00
2022-08-05T07:22:27.839Z,99441.22
2022-08-05T07:25:23.620Z,99434.03
2022-08-05T07:27:57.275Z,99435.69
2022-08-05T07:30:32.269Z,99452.19
2022-08-05T07:33:05.323Z,99449.69
2022-08-05T07:36:05.387Z,99456.00
2022-08-05T07:38:34.006Z,99441.47
2022-08-05T07:42:08.920Z,99410.47
2022-08-05T07:43:59.717Z,99434.56
2022-08-05T07:46:30.477Z,99461.50
2022-08-05T07:49:05.575Z,99403.78
2022-08-05T07:51:48.516Z,99421.03
2022-08-05T07:54:31.147Z,99457.31
2022-08-05T07:57:23.694Z,99391.91
2022-08-05T07:59:51.687Z,99449.25
2022-08-05T08:02:30.786Z,99449.78
2022-08-05T08:05:17.446Z,99460.06
2022-08-05T08:07:59.473Z,99413.41
2022-08-05T08:10:30.131Z,99461.88
2022-08-05T08:12:59.777Z,99403.38
2022-08-05T08:16:34.455Z,99453.00
2022-08-05T08:18:21.031Z,99435.94
2022-08-05T08:21:02.082Z,99415.53
2022-08-05T08:24:01.409Z,99456.97
2022-08-05T08:26:26.869Z,99459.25
2022-08-05T08:29:09.739Z,99370.94
2022-08-05T08:31:49.776Z,99437.41
2022-08-05T08:34:30.750Z,99440.75
2022-08-05T08:37:04.627Z,99440.97
2022-08-05T08:39:37.424Z,99429.47
2022-08-05T08:42:33.614Z,99440.22
2022-08-05T08:45:18.522Z,99403.97
2022-08-05T08:48:07.549Z,99437.97
2022-08-05T08:51:22.157Z,99444.47
2022-08-05T08:53:44.502Z,99439.97
2022-08-05T08:56:13.921Z,99437.84
2022-08-05T08:58:44.385Z,99433.00
2022-08-05T09:01:18.442Z,99404.56
2022-08-05T09:03:54.586Z,99428.44
2022-08-05T09:06:31.866Z,99435.47
2022-08-05T09:09:02.003Z,99350.81
2022-08-05T09:11:52.111Z,99428.91
2022-08-05T09:14:57.403Z,99426.13
2022-08-05T09:17:43.158Z,99428.94
2022-08-05T09:20:05.709Z,99417.56
2022-08-05T09:23:19.460Z,99414.41
2022-08-05T09:26:06.239Z,99408.56
2022-08-05T09:28:37.502Z,99404.94
2022-08-05T09:31:43.534Z,99397.47
2022-08-05T09:34:06.370Z,99390.81
2022-08-05T09:36:54.916Z,99411.56
2022-08-05T09:39:41.167Z,99393.06
2022-08-05T09:42:23.970Z,99396.94
2022-08-05T09:45:17.939Z,99394.44
2022-08-05T09:47:55.598Z,99380.84
2022-08-05T09:50:43.707Z,99387.22
2022-08-05T09:53:22.807Z,99382.56
2022-08-05T09:56:12.883Z,99398.31
2022-08-05T09:58:42.291Z,99338.34
2022-08-05T10:01:15.254Z,99361.81
2022-08-05T10:04:28.635Z,99361.56
2022-08-05T10:06:59.352Z,99388.88
2022-08-05T10:09:29.910Z,99379.41
2022-08-05T10:12:30.643Z,99373.59
2022-08-05T10:15:34.947Z,99383.72
2022-08-05T10:18:35.518Z,99377.09
2022-08-05T10:21:11.971Z,99386.13
2022-08-05T10:23:56.090Z,99356.88
2022-08-05T10:26:32.614Z,99377.50
2022-08-05T10:29:02.888Z,99373.72
2022-08-05T10:32:53.917Z,99345.44
2022-08-05T10:34:25.860Z,99364.91
2022-08-05T10:36:58.617Z,99364.88
2022-08-05T10:40:03.507Z,99380.94
2022-08-05T10:42:32.339Z,99362.81
2022-08-05T10:45:21.126Z,99361.41
2022-08-05T10:48:29.197Z,99351.66
2022-08-05T10:51:22.022Z,99356.19
2022-08-05T10:54:23.104Z,99352.91
2022-08-05T10:56:57.907Z,99354.63
2022-08-05T11:00:03.611Z,99314.75
2022-08-05T11:02:37.637Z,99341.78
2022-08-05T11:05:10.492Z,99345.47
2022-08-05T11:08:02.967Z,99349.97
2022-08-05T11:10:50.047Z,99347.00
2022-08-05T11:13:54.967Z,99344.91
2022-08-05T11:16:47.962Z,99353.44
2022-08-05T11:20:17.660Z,99343.28
2022-08-05T11:22:43.532Z,99359.38
2022-08-05T11:26:04.486Z,99343.31
2022-08-05T11:28:38.465Z,99345.13
2022-08-05T11:31:06.854Z,99305.91
2022-08-05T11:33:53.395Z,99341.94
2022-08-05T11:36:52.835Z,99308.25
2022-08-05T11:40:00.678Z,99331.31
2022-08-05T11:42:37.804Z,99341.41
2022-08-05T11:45:14.412Z,99330.09
2022-08-05T11:47:55.378Z,99323.09
2022-08-05T11:50:23.746Z,99323.00
2022-08-05T11:52:57.745Z,99322.44
2022-08-05T11:55:32.054Z,99320.53
2022-08-05T11:58:08.515Z,99325.31
2022-08-05T12:00:41.381Z,99320.84
2022-08-05T12:03:23.957Z,99328.25
2022-08-05T12:06:05.948Z,99326.63
2022-08-05T12:08:52.540Z,99314.06
2022-08-05T12:11:28.096Z,99287.38
2022-08-05T12:14:04.518Z,99257.53
2022-08-05T12:16:45.600Z,99266.16
2022-08-05T12:20:27.152Z,99313.88
2022-08-05T12:22:09.593Z,99267.44
2022-08-05T12:24:49.716Z,99301.28
2022-08-05T12:27:32.773Z,99295.09
2022-08-05T12:30:15.485Z,99287.50
2022-08-05T12:32:54.429Z,99237.91
2022-08-05T12:35:37.234Z,99299.22
2022-08-05T12:38:08.312Z,99290.69
2022-08-05T12:40:40.054Z,99295.22
2022-08-05T12:43:12.575Z,99297.06
2022-08-05T12:45:56.608Z,99292.34
2022-08-05T12:48:32.198Z,99288.34
2022-08-05T12:52:10.924Z,99295.72
2022-08-05T12:54:16.691Z,99286.84
2022-08-05T12:56:55.526Z,99279.50
2022-08-05T13:00:09.075Z,99288.03
2022-08-05T13:02:27.294Z,99283.34
2022-08-05T13:04:58.953Z,99275.91
2022-08-05T13:07:57.504Z,99291.38
2022-08-05T13:10:19.861Z,99229.53
2022-08-05T13:12:57.128Z,99242.03
2022-08-05T13:15:41.402Z,99287.41
2022-08-05T13:18:20.556Z,99281.22
2022-08-05T13:20:49.819Z,99274.31
2022-08-05T13:23:22.477Z,99266.00
2022-08-05T13:25:58.943Z,99275.56
2022-08-05T13:28:28.890Z,99269.16
2022-08-05T13:30:57.281Z,99266.19
2022-08-05T13:34:22.896Z,99228.44
2022-08-05T13:36:14.695Z,99264.84
2022-08-05T13:38:43.330Z,99261.38
2022-08-05T13:41:12.513Z,99246.19
2022-08-05T13:43:44.331Z,99251.66
2022-08-05T13:46:43.808Z,99265.78
2022-08-05T13:49:14.507Z,99256.75
2022-08-05T13:51:46.408Z,99251.44
2022-08-05T13:54:21.256Z,99244.50
2022-08-05T13:56:53.923Z,99243.84
2022-08-05T13:59:25.320Z,99245.16
2022-08-05T14:01:59.836Z,99234.50
2022-08-05T14:05:00.667Z,99202.00
2022-08-05T14:08:02.652Z,99243.44
2022-08-05T14:10:31.044Z,99236.66
2022-08-05T14:12:59.992Z,99229.91
2022-08-05T14:16:06.972Z,99199.09
2022-08-05T14:18:23.222Z,99163.72
2022-08-05T14:20:54.760Z,99232.94
2022-08-05T14:23:25.433Z,99233.91
2022-08-05T14:25:59.031Z,99228.81
2022-08-05T14:28:31.257Z,99193.09
2022-08-05T14:31:01.517Z,99226.34
2022-08-05T14:33:32.678Z,99228.47
2022-08-05T14:36:22.511Z,99230.28
2022-08-05T14:38:51.391Z,99229.84
2022-08-05T14:41:19.514Z,99231.41
2022-08-05T14:44:00.283Z,99174.06
2022-08-05T14:46:35.037Z,99214.28
2022-08-05T14:49:08.142Z,99218.38
2022-08-05T14:51:38.033Z,99197.69
2022-08-05T14:54:27.466Z,99173.81
2022-08-05T14:56:56.580Z,99182.44
2022-08-05T14:59:29.811Z,99213.19
2022-08-05T15:02:14.932Z,99205.75
2022-08-05T15:04:53.412Z,99207.09
2022-08-05T15:08:05.341Z,99202.41
2022-08-05T15:10:10.229Z,99212.53
2022-08-05T15:12:57.967Z,99206.25
2022-08-05T15:15:55.608Z,99200.28
2022-08-05T15:18:17.247Z,99199.69
2022-08-05T15:20:47.250Z,99188.16
2022-08-05T15:23:15.917Z,99191.78
2022-08-05T15:25:52.773Z,99190.97
2022-08-05T15:28:27.097Z,99189.81
2022-08-05T15:30:56.655Z,99177.59
2022-08-05T15:34:18.371Z,99182.25
2022-08-05T15:36:17.368Z,99189.81
2022-08-05T15:40:58.965Z,99182.50
2022-08-05T15:41:55.871Z,99157.13
2022-08-05T15:44:30.153Z,99179.84
2022-08-05T15:47:01.438Z,99177.50
2022-08-05T15:49:48.171Z,99177.56
2022-08-05T15:52:52.084Z,99191.69
2022-08-05T15:55:16.375Z,99160.03
2022-08-05T15:57:49.048Z,99185.09
2022-08-05T16:00:26.073Z,99183.22
2022-08-05T16:03:07.067Z,99162.69
2022-08-05T16:05:35.359Z,99184.19
2022-08-05T16:08:07.532Z,99141.97
2022-08-05T16:10:36.243Z,99173.91
2022-08-05T16:13:04.817Z,99177.72
2022-08-05T16:15:33.973Z,99179.00
2022-08-05T16:18:04.205Z,99178.03
2022-08-05T16:20:32.784Z,99155.63
2022-08-05T16:23:01.591Z,99180.41
2022-08-05T16:25:33.802Z,99140.16
2022-08-05T16:28:09.468Z,99147.34
2022-08-05T16:30:38.593Z,99183.34
2022-08-05T16:33:07.009Z,99179.91
2022-08-05T16:35:42.359Z,99183.75
2022-08-05T16:38:23.748Z,99171.84
2022-08-05T16:41:00.607Z,99151.06
2022-08-05T16:43:35.468Z,99188.69
2022-08-05T16:46:23.450Z,99177.63
2022-08-05T16:48:53.862Z,99178.44
2022-08-05T16:51:24.527Z,99150.50
2022-08-05T16:54:05.897Z,99171.50
2022-08-05T16:56:42.262Z,99154.72
2022-08-05T16:59:10.868Z,99167.09
2022-08-05T17:01:53.614Z,99142.00
2022-08-05T17:04:27.424Z,99178.34
2022-08-05T17:07:01.104Z,99178.72
2022-08-05T17:09:39.033Z,99098.69
2022-08-05T17:12:22.741Z,99126.28
2022-08-05T17:15:09.682Z,99181.53
2022-08-05T17:17:44.574Z,99172.94
2022-08-05T17:20:14.772Z,99172.41
2022-08-05T17:22:44.909Z,99170.88
2022-08-05T17:25:33.379Z,99145.28
2022-08-05T17:28:01.932Z,99172.56
2022-08-05T17:30:30.665Z,99073.97
2022-08-05T17:32:58.692Z,99183.09
2022-08-05T17:35:27.066Z,99187.75
2022-08-05T17:38:17.457Z,99139.63
2022-08-05T17:40:46.337Z,99179.00
2022-08-05T17:43:15.872Z,99166.69
2022-08-05T17:45:44.544Z,99168.28
2022-08-05T17:48:13.076Z,99144.88
2022-08-05T17:50:44.179Z,99185.44
2022-08-05T17:53:12.212Z,99141.13
2022-08-05T17:55:40.347Z,99136.84
2022-08-05T17:58:13.386Z,99150.66
2022-08-05T18:00:50.728Z,99182.25
2022-08-05T18:03:48.393Z,99140.63
2022-08-05T18:06:11.009Z,99179.56
2022-08-05T18:08:44.779Z,99178.44
2022-08-05T18:11:24.473Z,99111.75
2022-08-05T18:14:13.468Z,99198.91
2022-08-05T18:16:47.023Z,99161.00
2022-08-05T18:19:23.095Z,99198.53
2022-08-05T18:22:09.034Z,99197.91
2022-08-05T18:24:40.589Z,99195.97
2022-08-05T18:27:12.711Z,99206.34
2022-08-05T18:32:32.076Z,99158.97
2022-08-05T18:35:01.382Z,99209.06
2022-08-05T18:37:33.962Z,99214.50
2022-08-05T18:40:34.646Z,99216.59
2022-08-05T18:43:04.414Z,99219.78
2022-08-05T18:45:41.383Z,99175.47
2022-08-05T18:48:11.041Z,99227.78
2022-08-05T18:51:01.617Z,99216.28
2022-08-05T18:53:50.151Z,99221.34
2022-08-05T18:56:21.886Z,99217.31
2022-08-05T18:59:00.823Z,99212.78
2022-08-05T19:01:33.225Z,99222.38
2022-08-05T19:04:01.582Z,99234.78
2022-08-05T19:06:44.591Z,99222.13
2022-08-05T19:09:13.592Z,99215.09
2022-08-05T19:12:01.140Z,99224.34
2022-08-05T19:14:59.328Z,99198.97
2022-08-05T19:17:20.037Z,99232.97
2022-08-05T19:19:50.276Z,99233.06
2022-08-05T19:22:18.471Z,99234.75
2022-08-05T19:24:56.549Z,99233.25
2022-08-05T19:27:27.772Z,99228.06
2022-08-05T19:29:58.731Z,99229.03
2022-08-05T19:32:27.873Z,99229.72
2022-08-05T19:34:57.878Z,99234.16
2022-08-05T19:37:29.835Z,99240.78
2022-08-05T19:40:08.219Z,99243.19
2022-08-05T19:42:39.104Z,99244.91
2022-08-05T19:45:08.419Z,99234.91
2022-08-05T19:47:43.034Z,99243.41
2022-08-05T19:50:12.494Z,99249.09
2022-08-05T19:52:40.988Z,99251.47
2022-08-05T19:56:12.606Z,99249.50
2022-08-05T19:58:14.416Z,99252.22
2022-08-05T20:00:47.275Z,99200.19
2022-08-05T20:03:16.088Z,99247.75
2022-08-05T20:05:51.206Z,99243.75
2022-08-05T20:08:24.507Z,99205.66
2022-08-05T20:10:54.468Z,99237.88
2022-08-05T20:13:54.778Z,99246.03
2022-08-05T20:16:12.536Z,99244.06
2022-08-05T20:18:48.667Z,99249.84
2022-08-05T20:21:25.681Z,99238.75
2022-08-05T20:23:59.995Z,99247.56
2022-08-05T20:26:29.082Z,99240.13
2022-08-05T20:29:00.623Z,99235.19
2022-08-05T20:31:42.158Z,99249.72
2022-08-05T20:34:20.000Z,99251.72
2022-08-05T20:36:48.978Z,99252.19
2022-08-05T20:39:18.781Z,99248.75
2022-08-05T20:41:48.687Z,99191.22
2022-08-05T20:44:29.547Z,99250.41
2022-08-05T20:47:06.686Z,99253.22
2022-08-05T20:49:41.466Z,99243.69
2022-08-05T20:52:12.174Z,99248.88
2022-08-05T20:54:42.786Z,99224.75
2022-08-05T20:57:14.424Z,99202.44
2022-08-05T21:00:11.097Z,99211.06
2022-08-05T21:02:31.472Z,99250.16
2022-08-05T21:05:01.132Z,99238.09
2022-08-05T21:07:50.736Z,99258.66
2022-08-05T21:10:21.668Z,99249.78
2022-08-05T21:12:57.792Z,99259.69
2022-08-05T21:15:38.491Z,99256.59
2022-08-05T21:18:06.834Z,99221.59
2022-08-05T21:20:35.450Z,99257.56
2022-08-05T21:23:04.877Z,99255.78
2022-08-05T21:25:34.496Z,99257.22
2022-08-05T21:28:04.007Z,99258.81
2022-08-05T21:30:32.108Z,99134.69
2022-08-05T21:33:01.799Z,99255.00
2022-08-05T21:35:55.794Z,99249.81
2022-08-05T21:38:19.773Z,99246.63
2022-08-05T21:40:48.200Z,99251.81
2022-08-05T21:43:24.692Z,99240.78
2022-08-05T21:45:57.545Z,99261.13
2022-08-05T21:48:29.480Z,99243.72
2022-08-05T21:51:00.414Z,99253.28
2022-08-05T21:53:28.402Z,99256.81
2022-08-05T21:56:06.335Z,99244.19
2022-08-05T21:58:48.304Z,99249.38
2022-08-05T22:01:27.463Z,99200.06
2022-08-05T22:03:56.123Z,99157.88
2022-08-05T22:06:35.170Z,99237.44
2022-08-05T22:09:14.557Z,99219.59
2022-08-05T22:11:46.990Z,99223.03
2022-08-05T22:14:37.337Z,99223.38
2022-08-05T22:17:07.439Z,99220.41
2022-08-05T22:20:01.088Z,99193.53
2022-08-05T22:22:26.936Z,99233.75
2022-08-05T22:25:27.360Z,99216.78
2022-08-05T22:28:09.415Z,99189.41
2022-08-05T22:30:56.020Z,99217.91
2022-08-05T22:33:56.727Z,99223.94
2022-08-05T22:36:18.114Z,99170.97
2022-08-05T22:38:48.304Z,99190.09
2022-08-05T22:41:26.487Z,99231.31
2022-08-05T22:44:09.698Z,99185.78
2022-08-05T22:46:41.352Z,99225.97
2022-08-05T22:49:23.551Z,99220.66
2022-08-05T22:52:07.153Z,99222.28
2022-08-05T22:54:40.596Z,99224.63
2022-08-05T22:57:17.264Z,99214.56
2022-08-05T22:59:53.578Z,99226.75
2022-08-05T23:02:29.615Z,99227.03
2022-08-05T23:05:01.910Z,99221.38
2022-08-05T23:07:45.292Z,99233.25
2022-08-05T23:10:20.694Z,99216.16
2022-08-05T23:12:55.068Z,99220.13
2022-08-05T23:15:34.866Z,99212.00
2022-08-05T23:18:06.017Z,99216.19
2022-08-05T23:20:40.081Z,99116.22
2022-08-05T23:23:11.648Z,99199.63
2022-08-05T23:25:52.619Z,99213.00
2022-08-05T23:28:28.676Z,99179.25
2022-08-05T23:31:15.853Z,99171.84
2022-08-05T23:34:05.355Z,99208.50
2022-08-05T23:36:38.411Z,99202.16
2022-08-05T23:39:07.473Z,99208.84
2022-08-05T23:41:37.264Z,99209.88
2022-08-05T23:44:09.604Z,99199.75
2022-08-05T23:46:39.312Z,99206.84
2022-08-05T23:49:16.217Z,99214.13
2022-08-05T23:52:05.740Z,99209.16
2022-08-05T23:54:38.337Z,99215.22
2022-08-05T23:57:08.335Z,99171.66
